sensor_id;sensor_type;location;lat;lon;timestamp;P1;durP1;ratioP1;P2;durP2;ratioP2
74904;SDS011;63465;50.862;6.220;2024-02-15T00:02:07;10.53;;;3.77;;
74904;SDS011;63465;50.862;6.220;2024-02-15T00:04:32;8.60;;;4.17;;
74904;SDS011;63465;50.862;6.220;2024-02-15T00:06:58;5.80;;;3.13;;
74904;SDS011;63465;50.862;6.220;2024-02-15T00:09:24;6.13;;;4.07;;
74904;SDS011;63465;50.862;6.220;2024-02-15T00:11:50;5.50;;;3.70;;
74904;SDS011;63465;50.862;6.220;2024-02-15T00:14:15;8.27;;;3.80;;
74904;SDS011;63465;50.862;6.220;2024-02-15T00:16:42;8.17;;;4.90;;
74904;SDS011;63465;50.862;6.220;2024-02-15T00:19:07;7.27;;;3.83;;
74904;SDS011;63465;50.862;6.220;2024-02-15T00:21:32;5.20;;;2.80;;
74904;SDS011;63465;50.862;6.220;2024-02-15T00:23:58;8.93;;;3.73;;
74904;SDS011;63465;50.862;6.220;2024-02-15T00:26:24;3.10;;;1.90;;
74904;SDS011;63465;50.862;6.220;2024-02-15T00:28:50;2.60;;;2.20;;
74904;SDS011;63465;50.862;6.220;2024-02-15T00:31:15;11.40;;;4.50;;
74904;SDS011;63465;50.862;6.220;2024-02-15T00:33:41;3.60;;;3.17;;
74904;SDS011;63465;50.862;6.220;2024-02-15T00:36:06;3.40;;;3.10;;
74904;SDS011;63465;50.862;6.220;2024-02-15T00:38:32;8.97;;;4.33;;
74904;SDS011;63465;50.862;6.220;2024-02-15T00:40:57;5.10;;;4.43;;
74904;SDS011;63465;50.862;6.220;2024-02-15T00:43:26;8.77;;;4.57;;
74904;SDS011;63465;50.862;6.220;2024-02-15T00:45:52;12.00;;;5.27;;
74904;SDS011;63465;50.862;6.220;2024-02-15T00:48:18;9.43;;;4.33;;
74904;SDS011;63465;50.862;6.220;2024-02-15T00:50:43;5.70;;;4.50;;
74904;SDS011;63465;50.862;6.220;2024-02-15T00:53:08;6.47;;;4.03;;
74904;SDS011;63465;50.862;6.220;2024-02-15T00:55:33;10.83;;;4.00;;
74904;SDS011;63465;50.862;6.220;2024-02-15T00:57:59;7.37;;;4.27;;
74904;SDS011;63465;50.862;6.220;2024-02-15T01:00:24;7.70;;;3.87;;
74904;SDS011;63465;50.862;6.220;2024-02-15T01:02:51;5.20;;;3.60;;
74904;SDS011;63465;50.862;6.220;2024-02-15T01:05:17;4.90;;;3.90;;
74904;SDS011;63465;50.862;6.220;2024-02-15T01:07:43;6.63;;;3.30;;
74904;SDS011;63465;50.862;6.220;2024-02-15T01:10:08;3.47;;;2.90;;
74904;SDS011;63465;50.862;6.220;2024-02-15T01:12:34;2.00;;;1.63;;
74904;SDS011;63465;50.862;6.220;2024-02-15T01:14:59;5.67;;;3.20;;
74904;SDS011;63465;50.862;6.220;2024-02-15T01:17:24;7.57;;;3.73;;
74904;SDS011;63465;50.862;6.220;2024-02-15T01:19:50;7.50;;;3.27;;
74904;SDS011;63465;50.862;6.220;2024-02-15T01:22:15;5.83;;;3.60;;
74904;SDS011;63465;50.862;6.220;2024-02-15T01:24:41;9.03;;;3.40;;
74904;SDS011;63465;50.862;6.220;2024-02-15T01:27:06;11.37;;;3.90;;
74904;SDS011;63465;50.862;6.220;2024-02-15T01:29:32;7.50;;;3.27;;
74904;SDS011;63465;50.862;6.220;2024-02-15T01:31:58;2.90;;;2.00;;
74904;SDS011;63465;50.862;6.220;2024-02-15T01:34:23;4.77;;;2.83;;
74904;SDS011;63465;50.862;6.220;2024-02-15T01:36:48;5.37;;;3.67;;
74904;SDS011;63465;50.862;6.220;2024-02-15T01:39:15;9.30;;;2.80;;
74904;SDS011;63465;50.862;6.220;2024-02-15T01:41:40;4.67;;;2.57;;
74904;SDS011;63465;50.862;6.220;2024-02-15T01:44:05;2.97;;;2.30;;
74904;SDS011;63465;50.862;6.220;2024-02-15T01:46:32;8.63;;;2.83;;
74904;SDS011;63465;50.862;6.220;2024-02-15T01:48:58;4.83;;;2.90;;
74904;SDS011;63465;50.862;6.220;2024-02-15T01:51:24;8.73;;;2.60;;
74904;SDS011;63465;50.862;6.220;2024-02-15T01:53:51;9.40;;;3.00;;
74904;SDS011;63465;50.862;6.220;2024-02-15T01:56:19;2.60;;;2.10;;
74904;SDS011;63465;50.862;6.220;2024-02-15T01:58:45;3.23;;;1.80;;
74904;SDS011;63465;50.862;6.220;2024-02-15T02:01:11;10.13;;;2.63;;
74904;SDS011;63465;50.862;6.220;2024-02-15T02:03:36;3.60;;;1.80;;
74904;SDS011;63465;50.862;6.220;2024-02-15T02:06:03;4.57;;;2.30;;
74904;SDS011;63465;50.862;6.220;2024-02-15T02:08:29;3.50;;;2.23;;
74904;SDS011;63465;50.862;6.220;2024-02-15T02:10:55;6.43;;;2.57;;
74904;SDS011;63465;50.862;6.220;2024-02-15T02:13:20;5.90;;;2.57;;
74904;SDS011;63465;50.862;6.220;2024-02-15T02:15:46;7.60;;;2.07;;
74904;SDS011;63465;50.862;6.220;2024-02-15T02:18:11;5.63;;;2.40;;
74904;SDS011;63465;50.862;6.220;2024-02-15T02:20:37;9.90;;;2.70;;
74904;SDS011;63465;50.862;6.220;2024-02-15T02:23:06;5.03;;;2.30;;
74904;SDS011;63465;50.862;6.220;2024-02-15T02:25:32;4.53;;;2.00;;
74904;SDS011;63465;50.862;6.220;2024-02-15T02:27:59;1.60;;;1.40;;
74904;SDS011;63465;50.862;6.220;2024-02-15T02:30:25;6.20;;;2.73;;
74904;SDS011;63465;50.862;6.220;2024-02-15T02:32:54;6.43;;;2.50;;
74904;SDS011;63465;50.862;6.220;2024-02-15T02:35:20;6.20;;;2.70;;
74904;SDS011;63465;50.862;6.220;2024-02-15T02:37:45;4.13;;;2.10;;
74904;SDS011;63465;50.862;6.220;2024-02-15T02:40:11;7.70;;;2.33;;
74904;SDS011;63465;50.862;6.220;2024-02-15T02:42:49;7.77;;;2.33;;
74904;SDS011;63465;50.862;6.220;2024-02-15T02:45:18;3.80;;;1.83;;
74904;SDS011;63465;50.862;6.220;2024-02-15T02:47:45;5.37;;;2.07;;
74904;SDS011;63465;50.862;6.220;2024-02-15T02:50:11;11.53;;;1.93;;
74904;SDS011;63465;50.862;6.220;2024-02-15T02:52:37;1.93;;;1.37;;
74904;SDS011;63465;50.862;6.220;2024-02-15T02:55:04;8.30;;;3.20;;
74904;SDS011;63465;50.862;6.220;2024-02-15T02:57:33;4.30;;;1.73;;
74904;SDS011;63465;50.862;6.220;2024-02-15T02:59:59;2.40;;;1.70;;
74904;SDS011;63465;50.862;6.220;2024-02-15T03:02:24;6.40;;;2.27;;
74904;SDS011;63465;50.862;6.220;2024-02-15T03:04:49;3.63;;;1.60;;
74904;SDS011;63465;50.862;6.220;2024-02-15T03:07:15;6.53;;;2.10;;
74904;SDS011;63465;50.862;6.220;2024-02-15T03:09:42;2.50;;;1.63;;
74904;SDS011;63465;50.862;6.220;2024-02-15T03:12:07;3.73;;;1.57;;
74904;SDS011;63465;50.862;6.220;2024-02-15T03:14:34;7.70;;;1.60;;
74904;SDS011;63465;50.862;6.220;2024-02-15T03:17:00;7.30;;;1.77;;
74904;SDS011;63465;50.862;6.220;2024-02-15T03:19:28;5.53;;;1.70;;
74904;SDS011;63465;50.862;6.220;2024-02-15T03:21:55;6.37;;;2.07;;
74904;SDS011;63465;50.862;6.220;2024-02-15T03:24:21;3.93;;;2.00;;
74904;SDS011;63465;50.862;6.220;2024-02-15T03:26:46;7.03;;;1.93;;
74904;SDS011;63465;50.862;6.220;2024-02-15T03:29:11;3.00;;;1.70;;
74904;SDS011;63465;50.862;6.220;2024-02-15T03:31:37;7.87;;;1.80;;
74904;SDS011;63465;50.862;6.220;2024-02-15T03:34:05;5.17;;;2.10;;
74904;SDS011;63465;50.862;6.220;2024-02-15T03:36:30;5.10;;;1.60;;
74904;SDS011;63465;50.862;6.220;2024-02-15T03:38:56;5.23;;;1.70;;
74904;SDS011;63465;50.862;6.220;2024-02-15T03:41:21;4.30;;;1.77;;
74904;SDS011;63465;50.862;6.220;2024-02-15T03:43:47;4.47;;;1.70;;
74904;SDS011;63465;50.862;6.220;2024-02-15T03:46:13;4.27;;;1.67;;
74904;SDS011;63465;50.862;6.220;2024-02-15T03:48:43;9.23;;;1.90;;
74904;SDS011;63465;50.862;6.220;2024-02-15T03:51:09;10.60;;;1.90;;
74904;SDS011;63465;50.862;6.220;2024-02-15T03:53:34;8.70;;;2.10;;
74904;SDS011;63465;50.862;6.220;2024-02-15T03:56:03;4.63;;;1.80;;
74904;SDS011;63465;50.862;6.220;2024-02-15T03:58:28;2.23;;;1.50;;
74904;SDS011;63465;50.862;6.220;2024-02-15T04:00:55;1.40;;;1.30;;
74904;SDS011;63465;50.862;6.220;2024-02-15T04:03:22;4.80;;;1.90;;
74904;SDS011;63465;50.862;6.220;2024-02-15T04:05:47;1.20;;;1.20;;
74904;SDS011;63465;50.862;6.220;2024-02-15T04:08:13;4.97;;;1.60;;
74904;SDS011;63465;50.862;6.220;2024-02-15T04:10:41;4.63;;;1.60;;
74904;SDS011;63465;50.862;6.220;2024-02-15T04:13:07;3.93;;;1.70;;
74904;SDS011;63465;50.862;6.220;2024-02-15T04:15:32;6.23;;;1.63;;
74904;SDS011;63465;50.862;6.220;2024-02-15T04:17:58;4.83;;;1.67;;
74904;SDS011;63465;50.862;6.220;2024-02-15T04:20:24;3.87;;;1.40;;
74904;SDS011;63465;50.862;6.220;2024-02-15T04:22:51;6.80;;;1.63;;
74904;SDS011;63465;50.862;6.220;2024-02-15T04:25:16;1.20;;;1.17;;
74904;SDS011;63465;50.862;6.220;2024-02-15T04:27:44;2.97;;;1.60;;
74904;SDS011;63465;50.862;6.220;2024-02-15T04:30:14;1.80;;;1.47;;
74904;SDS011;63465;50.862;6.220;2024-02-15T04:32:40;4.90;;;1.80;;
74904;SDS011;63465;50.862;6.220;2024-02-15T04:35:06;2.03;;;1.40;;
74904;SDS011;63465;50.862;6.220;2024-02-15T04:37:31;3.73;;;1.47;;
74904;SDS011;63465;50.862;6.220;2024-02-15T04:39:57;1.90;;;1.67;;
74904;SDS011;63465;50.862;6.220;2024-02-15T04:42:31;4.00;;;1.80;;
74904;SDS011;63465;50.862;6.220;2024-02-15T04:44:57;3.80;;;1.57;;
74904;SDS011;63465;50.862;6.220;2024-02-15T04:47:23;3.57;;;1.40;;
74904;SDS011;63465;50.862;6.220;2024-02-15T04:49:49;1.77;;;1.30;;
74904;SDS011;63465;50.862;6.220;2024-02-15T04:52:14;3.60;;;1.60;;
74904;SDS011;63465;50.862;6.220;2024-02-15T04:54:39;1.67;;;1.57;;
74904;SDS011;63465;50.862;6.220;2024-02-15T04:57:05;1.87;;;1.43;;
74904;SDS011;63465;50.862;6.220;2024-02-15T04:59:31;4.50;;;1.70;;
74904;SDS011;63465;50.862;6.220;2024-02-15T05:01:57;2.90;;;1.60;;
74904;SDS011;63465;50.862;6.220;2024-02-15T05:04:23;3.50;;;1.37;;
74904;SDS011;63465;50.862;6.220;2024-02-15T05:06:49;1.67;;;1.20;;
74904;SDS011;63465;50.862;6.220;2024-02-15T05:09:15;2.20;;;1.33;;
74904;SDS011;63465;50.862;6.220;2024-02-15T05:11:43;4.57;;;1.67;;
74904;SDS011;63465;50.862;6.220;2024-02-15T05:14:13;4.47;;;1.60;;
74904;SDS011;63465;50.862;6.220;2024-02-15T05:16:44;6.57;;;2.10;;
74904;SDS011;63465;50.862;6.220;2024-02-15T05:19:13;3.77;;;1.50;;
74904;SDS011;63465;50.862;6.220;2024-02-15T05:21:39;2.50;;;1.70;;
74904;SDS011;63465;50.862;6.220;2024-02-15T05:24:05;6.00;;;1.67;;
74904;SDS011;63465;50.862;6.220;2024-02-15T05:26:31;7.23;;;1.57;;
74904;SDS011;63465;50.862;6.220;2024-02-15T05:28:56;3.27;;;1.60;;
74904;SDS011;63465;50.862;6.220;2024-02-15T05:31:22;5.20;;;1.80;;
74904;SDS011;63465;50.862;6.220;2024-02-15T05:33:50;3.43;;;1.70;;
74904;SDS011;63465;50.862;6.220;2024-02-15T05:36:17;1.70;;;1.50;;
74904;SDS011;63465;50.862;6.220;2024-02-15T05:38:47;4.30;;;2.13;;
74904;SDS011;63465;50.862;6.220;2024-02-15T05:41:13;4.23;;;2.23;;
74904;SDS011;63465;50.862;6.220;2024-02-15T05:43:39;10.77;;;1.70;;
74904;SDS011;63465;50.862;6.220;2024-02-15T05:46:06;5.67;;;1.67;;
74904;SDS011;63465;50.862;6.220;2024-02-15T05:48:32;1.70;;;1.60;;
74904;SDS011;63465;50.862;6.220;2024-02-15T05:51:01;4.30;;;1.70;;
74904;SDS011;63465;50.862;6.220;2024-02-15T05:53:26;1.30;;;1.20;;
74904;SDS011;63465;50.862;6.220;2024-02-15T05:55:52;7.10;;;1.90;;
74904;SDS011;63465;50.862;6.220;2024-02-15T05:58:18;4.30;;;1.73;;
74904;SDS011;63465;50.862;6.220;2024-02-15T06:00:43;1.90;;;1.40;;
74904;SDS011;63465;50.862;6.220;2024-02-15T06:03:15;3.57;;;1.33;;
74904;SDS011;63465;50.862;6.220;2024-02-15T06:05:41;2.00;;;1.40;;
74904;SDS011;63465;50.862;6.220;2024-02-15T06:08:07;15.07;;;1.70;;
74904;SDS011;63465;50.862;6.220;2024-02-15T06:10:32;1.67;;;1.50;;
74904;SDS011;63465;50.862;6.220;2024-02-15T06:12:57;3.50;;;1.57;;
74904;SDS011;63465;50.862;6.220;2024-02-15T06:15:24;5.43;;;1.23;;
74904;SDS011;63465;50.862;6.220;2024-02-15T06:17:50;5.53;;;1.77;;
74904;SDS011;63465;50.862;6.220;2024-02-15T06:20:15;4.40;;;1.70;;
74904;SDS011;63465;50.862;6.220;2024-02-15T06:22:43;1.70;;;1.43;;
74904;SDS011;63465;50.862;6.220;2024-02-15T06:25:08;2.30;;;1.40;;
74904;SDS011;63465;50.862;6.220;2024-02-15T06:27:35;6.63;;;1.47;;
74904;SDS011;63465;50.862;6.220;2024-02-15T06:30:05;3.90;;;1.60;;
74904;SDS011;63465;50.862;6.220;2024-02-15T06:32:50;2.30;;;1.30;;
74904;SDS011;63465;50.862;6.220;2024-02-15T06:35:34;3.80;;;2.13;;
74904;SDS011;63465;50.862;6.220;2024-02-15T06:38:17;15.10;;;1.93;;
74904;SDS011;63465;50.862;6.220;2024-02-15T06:41:01;3.30;;;1.20;;
74904;SDS011;63465;50.862;6.220;2024-02-15T06:43:27;4.73;;;1.63;;
74904;SDS011;63465;50.862;6.220;2024-02-15T06:45:52;2.07;;;1.10;;
74904;SDS011;63465;50.862;6.220;2024-02-15T06:48:17;3.13;;;1.20;;
74904;SDS011;63465;50.862;6.220;2024-02-15T06:50:43;4.27;;;1.67;;
74904;SDS011;63465;50.862;6.220;2024-02-15T06:53:08;3.60;;;1.43;;
74904;SDS011;63465;50.862;6.220;2024-02-15T06:55:33;1.67;;;1.30;;
74904;SDS011;63465;50.862;6.220;2024-02-15T06:57:58;1.60;;;1.50;;
74904;SDS011;63465;50.862;6.220;2024-02-15T07:00:24;3.17;;;1.17;;
74904;SDS011;63465;50.862;6.220;2024-02-15T07:02:49;1.67;;;1.10;;
74904;SDS011;63465;50.862;6.220;2024-02-15T07:05:15;3.40;;;1.17;;
74904;SDS011;63465;50.862;6.220;2024-02-15T07:07:42;1.33;;;1.00;;
74904;SDS011;63465;50.862;6.220;2024-02-15T07:10:08;1.33;;;1.00;;
74904;SDS011;63465;50.862;6.220;2024-02-15T07:12:34;1.13;;;1.03;;
74904;SDS011;63465;50.862;6.220;2024-02-15T07:14:59;0.97;;;0.90;;
74904;SDS011;63465;50.862;6.220;2024-02-15T07:17:26;1.83;;;1.20;;
74904;SDS011;63465;50.862;6.220;2024-02-15T07:19:52;1.20;;;1.00;;
74904;SDS011;63465;50.862;6.220;2024-02-15T07:22:17;4.30;;;1.07;;
74904;SDS011;63465;50.862;6.220;2024-02-15T07:24:43;3.23;;;1.00;;
74904;SDS011;63465;50.862;6.220;2024-02-15T07:27:08;4.20;;;1.60;;
74904;SDS011;63465;50.862;6.220;2024-02-15T07:29:35;1.80;;;1.07;;
74904;SDS011;63465;50.862;6.220;2024-02-15T07:32:02;1.43;;;1.30;;
74904;SDS011;63465;50.862;6.220;2024-02-15T07:34:31;1.73;;;1.20;;
74904;SDS011;63465;50.862;6.220;2024-02-15T07:36:57;2.63;;;1.27;;
74904;SDS011;63465;50.862;6.220;2024-02-15T07:39:23;10.90;;;1.50;;
74904;SDS011;63465;50.862;6.220;2024-02-15T07:41:52;0.87;;;0.80;;
74904;SDS011;63465;50.862;6.220;2024-02-15T07:44:17;1.67;;;1.00;;
74904;SDS011;63465;50.862;6.220;2024-02-15T07:46:43;1.07;;;0.97;;
74904;SDS011;63465;50.862;6.220;2024-02-15T07:49:08;3.93;;;1.10;;
74904;SDS011;63465;50.862;6.220;2024-02-15T07:51:34;2.97;;;1.00;;
74904;SDS011;63465;50.862;6.220;2024-02-15T07:53:59;4.47;;;1.13;;
74904;SDS011;63465;50.862;6.220;2024-02-15T07:56:26;1.17;;;0.90;;
74904;SDS011;63465;50.862;6.220;2024-02-15T07:58:52;5.13;;;1.53;;
74904;SDS011;63465;50.862;6.220;2024-02-15T08:01:17;4.30;;;1.50;;
74904;SDS011;63465;50.862;6.220;2024-02-15T08:03:45;2.70;;;0.90;;
74904;SDS011;63465;50.862;6.220;2024-02-15T08:06:11;2.03;;;1.43;;
74904;SDS011;63465;50.862;6.220;2024-02-15T08:08:38;2.40;;;1.23;;
74904;SDS011;63465;50.862;6.220;2024-02-15T08:11:06;2.23;;;0.93;;
74904;SDS011;63465;50.862;6.220;2024-02-15T08:13:35;2.00;;;1.17;;
74904;SDS011;63465;50.862;6.220;2024-02-15T08:16:03;1.60;;;1.07;;
74904;SDS011;63465;50.862;6.220;2024-02-15T08:18:30;1.10;;;1.00;;
74904;SDS011;63465;50.862;6.220;2024-02-15T08:20:56;0.90;;;0.80;;
74904;SDS011;63465;50.862;6.220;2024-02-15T08:23:22;3.23;;;0.90;;
74904;SDS011;63465;50.862;6.220;2024-02-15T08:25:47;2.80;;;1.00;;
74904;SDS011;63465;50.862;6.220;2024-02-15T08:28:13;1.77;;;0.90;;
74904;SDS011;63465;50.862;6.220;2024-02-15T08:30:38;3.33;;;1.43;;
74904;SDS011;63465;50.862;6.220;2024-02-15T08:33:03;3.83;;;1.07;;
74904;SDS011;63465;50.862;6.220;2024-02-15T08:35:29;1.93;;;1.20;;
74904;SDS011;63465;50.862;6.220;2024-02-15T08:37:54;1.97;;;0.87;;
74904;SDS011;63465;50.862;6.220;2024-02-15T08:40:20;1.73;;;1.13;;
74904;SDS011;63465;50.862;6.220;2024-02-15T08:42:50;2.27;;;1.10;;
74904;SDS011;63465;50.862;6.220;2024-02-15T08:45:15;1.20;;;1.07;;
74904;SDS011;63465;50.862;6.220;2024-02-15T08:47:41;1.93;;;1.23;;
74904;SDS011;63465;50.862;6.220;2024-02-15T08:50:08;2.80;;;1.20;;
74904;SDS011;63465;50.862;6.220;2024-02-15T08:52:35;2.10;;;1.07;;
74904;SDS011;63465;50.862;6.220;2024-02-15T08:55:03;1.17;;;0.87;;
74904;SDS011;63465;50.862;6.220;2024-02-15T08:57:35;1.53;;;1.40;;
74904;SDS011;63465;50.862;6.220;2024-02-15T09:00:04;3.27;;;1.20;;
74904;SDS011;63465;50.862;6.220;2024-02-15T09:02:39;1.57;;;1.20;;
74904;SDS011;63465;50.862;6.220;2024-02-15T09:05:05;0.97;;;0.90;;
74904;SDS011;63465;50.862;6.220;2024-02-15T09:07:31;1.83;;;1.00;;
74904;SDS011;63465;50.862;6.220;2024-02-15T09:09:56;1.73;;;1.20;;
74904;SDS011;63465;50.862;6.220;2024-02-15T09:12:22;2.60;;;1.50;;
74904;SDS011;63465;50.862;6.220;2024-02-15T09:14:47;3.37;;;1.50;;
74904;SDS011;63465;50.862;6.220;2024-02-15T09:17:13;2.57;;;1.20;;
74904;SDS011;63465;50.862;6.220;2024-02-15T09:19:38;2.10;;;1.03;;
74904;SDS011;63465;50.862;6.220;2024-02-15T09:22:04;1.77;;;1.40;;
74904;SDS011;63465;50.862;6.220;2024-02-15T09:24:30;1.70;;;1.10;;
74904;SDS011;63465;50.862;6.220;2024-02-15T09:26:55;5.67;;;1.70;;
74904;SDS011;63465;50.862;6.220;2024-02-15T09:29:21;1.90;;;1.37;;
74904;SDS011;63465;50.862;6.220;2024-02-15T09:31:49;2.57;;;1.13;;
74904;SDS011;63465;50.862;6.220;2024-02-15T09:34:14;2.50;;;1.23;;
74904;SDS011;63465;50.862;6.220;2024-02-15T09:36:40;7.30;;;1.30;;
74904;SDS011;63465;50.862;6.220;2024-02-15T09:39:05;1.40;;;1.30;;
74904;SDS011;63465;50.862;6.220;2024-02-15T09:41:31;2.63;;;1.03;;
74904;SDS011;63465;50.862;6.220;2024-02-15T09:43:57;2.23;;;1.50;;
74904;SDS011;63465;50.862;6.220;2024-02-15T09:46:22;3.73;;;1.07;;
74904;SDS011;63465;50.862;6.220;2024-02-15T09:48:49;2.20;;;1.10;;
74904;SDS011;63465;50.862;6.220;2024-02-15T09:51:16;2.20;;;1.27;;
74904;SDS011;63465;50.862;6.220;2024-02-15T09:53:44;1.70;;;0.93;;
74904;SDS011;63465;50.862;6.220;2024-02-15T09:56:12;1.30;;;1.20;;
74904;SDS011;63465;50.862;6.220;2024-02-15T09:58:39;1.63;;;1.10;;
74904;SDS011;63465;50.862;6.220;2024-02-15T10:01:04;4.43;;;1.20;;
74904;SDS011;63465;50.862;6.220;2024-02-15T10:03:34;4.30;;;1.33;;
74904;SDS011;63465;50.862;6.220;2024-02-15T10:06:02;2.30;;;1.37;;
74904;SDS011;63465;50.862;6.220;2024-02-15T10:08:29;1.47;;;0.93;;
74904;SDS011;63465;50.862;6.220;2024-02-15T10:11:07;1.40;;;0.90;;
74904;SDS011;63465;50.862;6.220;2024-02-15T10:13:36;2.80;;;1.10;;
74904;SDS011;63465;50.862;6.220;2024-02-15T10:16:17;1.90;;;1.00;;
74904;SDS011;63465;50.862;6.220;2024-02-15T10:18:44;2.00;;;1.10;;
74904;SDS011;63465;50.862;6.220;2024-02-15T10:21:23;5.03;;;1.43;;
74904;SDS011;63465;50.862;6.220;2024-02-15T10:24:04;2.93;;;1.10;;
74904;SDS011;63465;50.862;6.220;2024-02-15T10:26:30;3.67;;;0.93;;
74904;SDS011;63465;50.862;6.220;2024-02-15T10:29:30;1.00;;;0.77;;
74904;SDS011;63465;50.862;6.220;2024-02-15T10:31:55;4.03;;;1.20;;
74904;SDS011;63465;50.862;6.220;2024-02-15T10:34:23;1.83;;;0.93;;
74904;SDS011;63465;50.862;6.220;2024-02-15T10:36:51;4.90;;;1.47;;
74904;SDS011;63465;50.862;6.220;2024-02-15T10:39:17;1.73;;;1.00;;
74904;SDS011;63465;50.862;6.220;2024-02-15T10:41:45;1.70;;;1.07;;
74904;SDS011;63465;50.862;6.220;2024-02-15T10:44:18;1.63;;;0.93;;
74904;SDS011;63465;50.862;6.220;2024-02-15T10:46:45;1.77;;;1.13;;
74904;SDS011;63465;50.862;6.220;2024-02-15T10:49:15;2.30;;;1.13;;
74904;SDS011;63465;50.862;6.220;2024-02-15T10:51:43;1.40;;;1.00;;
74904;SDS011;63465;50.862;6.220;2024-02-15T10:54:11;1.03;;;0.80;;
74904;SDS011;63465;50.862;6.220;2024-02-15T10:56:43;1.30;;;1.20;;
74904;SDS011;63465;50.862;6.220;2024-02-15T11:01:52;1.70;;;1.00;;
74904;SDS011;63465;50.862;6.220;2024-02-15T11:04:23;2.00;;;1.03;;
74904;SDS011;63465;50.862;6.220;2024-02-15T11:06:52;6.53;;;1.10;;
74904;SDS011;63465;50.862;6.220;2024-02-15T11:09:20;2.90;;;1.17;;
74904;SDS011;63465;50.862;6.220;2024-02-15T11:11:47;3.17;;;1.07;;
74904;SDS011;63465;50.862;6.220;2024-02-15T11:14:25;4.57;;;1.03;;
74904;SDS011;63465;50.862;6.220;2024-02-15T11:16:53;1.27;;;0.90;;
74904;SDS011;63465;50.862;6.220;2024-02-15T11:19:39;2.13;;;1.40;;
74904;SDS011;63465;50.862;6.220;2024-02-15T11:22:10;2.83;;;1.00;;
74904;SDS011;63465;50.862;6.220;2024-02-15T11:24:47;5.60;;;1.13;;
74904;SDS011;63465;50.862;6.220;2024-02-15T11:27:29;1.27;;;0.90;;
74904;SDS011;63465;50.862;6.220;2024-02-15T11:32:47;1.00;;;0.90;;
74904;SDS011;63465;50.862;6.220;2024-02-15T11:43:06;9.57;;;1.43;;
74904;SDS011;63465;50.862;6.220;2024-02-15T11:45:32;2.30;;;0.80;;
74904;SDS011;63465;50.862;6.220;2024-02-15T11:48:07;3.00;;;1.30;;
74904;SDS011;63465;50.862;6.220;2024-02-15T11:50:36;5.63;;;1.50;;
74904;SDS011;63465;50.862;6.220;2024-02-15T11:53:02;3.63;;;1.10;;
74904;SDS011;63465;50.862;6.220;2024-02-15T11:55:35;3.90;;;1.10;;
74904;SDS011;63465;50.862;6.220;2024-02-15T11:58:02;2.40;;;1.00;;
74904;SDS011;63465;50.862;6.220;2024-02-15T12:00:48;1.67;;;1.00;;
74904;SDS011;63465;50.862;6.220;2024-02-15T12:03:32;3.03;;;1.10;;
74904;SDS011;63465;50.862;6.220;2024-02-15T12:06:19;1.97;;;0.80;;
74904;SDS011;63465;50.862;6.220;2024-02-15T12:09:03;1.20;;;1.10;;
74904;SDS011;63465;50.862;6.220;2024-02-15T12:11:47;2.30;;;0.97;;
74904;SDS011;63465;50.862;6.220;2024-02-15T12:14:31;3.13;;;1.20;;
74904;SDS011;63465;50.862;6.220;2024-02-15T12:17:14;3.90;;;0.97;;
74904;SDS011;63465;50.862;6.220;2024-02-15T12:20:02;1.77;;;1.00;;
74904;SDS011;63465;50.862;6.220;2024-02-15T12:22:43;2.60;;;1.93;;
74904;SDS011;63465;50.862;6.220;2024-02-15T12:25:15;1.50;;;0.80;;
74904;SDS011;63465;50.862;6.220;2024-02-15T12:27:41;2.30;;;1.00;;
74904;SDS011;63465;50.862;6.220;2024-02-15T12:30:08;0.70;;;0.67;;
74904;SDS011;63465;50.862;6.220;2024-02-15T12:32:38;1.97;;;1.07;;
74904;SDS011;63465;50.862;6.220;2024-02-15T12:35:13;1.40;;;0.80;;
74904;SDS011;63465;50.862;6.220;2024-02-15T12:37:44;2.87;;;0.83;;
74904;SDS011;63465;50.862;6.220;2024-02-15T12:40:14;1.50;;;0.97;;
74904;SDS011;63465;50.862;6.220;2024-02-15T12:42:45;3.80;;;1.10;;
74904;SDS011;63465;50.862;6.220;2024-02-15T12:45:18;2.57;;;1.00;;
74904;SDS011;63465;50.862;6.220;2024-02-15T12:47:50;1.07;;;0.80;;
74904;SDS011;63465;50.862;6.220;2024-02-15T12:50:18;2.13;;;0.90;;
74904;SDS011;63465;50.862;6.220;2024-02-15T12:52:48;2.30;;;0.70;;
74904;SDS011;63465;50.862;6.220;2024-02-15T12:55:20;5.30;;;0.90;;
74904;SDS011;63465;50.862;6.220;2024-02-15T12:57:50;1.30;;;0.90;;
74904;SDS011;63465;50.862;6.220;2024-02-15T13:00:17;2.83;;;1.13;;
74904;SDS011;63465;50.862;6.220;2024-02-15T13:02:47;2.90;;;1.20;;
74904;SDS011;63465;50.862;6.220;2024-02-15T13:05:14;10.30;;;1.07;;
74904;SDS011;63465;50.862;6.220;2024-02-15T13:07:40;1.10;;;0.70;;
74904;SDS011;63465;50.862;6.220;2024-02-15T13:10:06;2.77;;;1.23;;
74904;SDS011;63465;50.862;6.220;2024-02-15T13:12:33;5.83;;;1.50;;
74904;SDS011;63465;50.862;6.220;2024-02-15T13:15:00;1.33;;;0.90;;
74904;SDS011;63465;50.862;6.220;2024-02-15T13:17:29;1.73;;;0.90;;
74904;SDS011;63465;50.862;6.220;2024-02-15T13:19:54;3.37;;;0.80;;
74904;SDS011;63465;50.862;6.220;2024-02-15T13:22:27;8.43;;;1.10;;
74904;SDS011;63465;50.862;6.220;2024-02-15T13:24:53;0.80;;;0.80;;
74904;SDS011;63465;50.862;6.220;2024-02-15T13:27:20;2.60;;;0.90;;
74904;SDS011;63465;50.862;6.220;2024-02-15T13:29:48;5.60;;;0.90;;
74904;SDS011;63465;50.862;6.220;2024-02-15T13:32:13;2.30;;;0.90;;
74904;SDS011;63465;50.862;6.220;2024-02-15T13:34:40;5.70;;;1.00;;
74904;SDS011;63465;50.862;6.220;2024-02-15T13:37:06;1.37;;;0.97;;
74904;SDS011;63465;50.862;6.220;2024-02-15T13:39:31;2.80;;;0.87;;
74904;SDS011;63465;50.862;6.220;2024-02-15T13:42:00;10.03;;;1.73;;
74904;SDS011;63465;50.862;6.220;2024-02-15T13:44:26;2.60;;;1.10;;
74904;SDS011;63465;50.862;6.220;2024-02-15T13:46:51;1.07;;;1.03;;
74904;SDS011;63465;50.862;6.220;2024-02-15T13:49:20;3.70;;;1.40;;
74904;SDS011;63465;50.862;6.220;2024-02-15T13:51:46;3.30;;;1.30;;
74904;SDS011;63465;50.862;6.220;2024-02-15T13:54:11;2.50;;;1.07;;
74904;SDS011;63465;50.862;6.220;2024-02-15T13:56:36;3.50;;;1.17;;
74904;SDS011;63465;50.862;6.220;2024-02-15T13:59:02;1.17;;;0.90;;
74904;SDS011;63465;50.862;6.220;2024-02-15T14:01:27;2.37;;;1.10;;
74904;SDS011;63465;50.862;6.220;2024-02-15T14:03:53;1.40;;;1.03;;
74904;SDS011;63465;50.862;6.220;2024-02-15T14:06:18;2.37;;;1.20;;
74904;SDS011;63465;50.862;6.220;2024-02-15T14:08:44;2.40;;;1.27;;
74904;SDS011;63465;50.862;6.220;2024-02-15T14:11:09;2.87;;;1.00;;
74904;SDS011;63465;50.862;6.220;2024-02-15T14:13:34;4.60;;;1.33;;
74904;SDS011;63465;50.862;6.220;2024-02-15T14:16:00;2.23;;;2.03;;
74904;SDS011;63465;50.862;6.220;2024-02-15T14:18:27;1.43;;;1.27;;
74904;SDS011;63465;50.862;6.220;2024-02-15T14:20:54;1.00;;;0.90;;
74904;SDS011;63465;50.862;6.220;2024-02-15T14:23:19;1.30;;;1.20;;
74904;SDS011;63465;50.862;6.220;2024-02-15T14:25:44;0.97;;;0.80;;
74904;SDS011;63465;50.862;6.220;2024-02-15T14:28:10;13.10;;;1.00;;
74904;SDS011;63465;50.862;6.220;2024-02-15T14:30:35;1.97;;;1.10;;
74904;SDS011;63465;50.862;6.220;2024-02-15T14:33:19;1.70;;;1.20;;
74904;SDS011;63465;50.862;6.220;2024-02-15T14:35:47;7.90;;;1.20;;
74904;SDS011;63465;50.862;6.220;2024-02-15T14:38:13;1.43;;;0.97;;
74904;SDS011;63465;50.862;6.220;2024-02-15T14:40:41;1.83;;;1.20;;
74904;SDS011;63465;50.862;6.220;2024-02-15T14:43:20;4.00;;;1.27;;
74904;SDS011;63465;50.862;6.220;2024-02-15T14:45:48;3.00;;;1.20;;
74904;SDS011;63465;50.862;6.220;2024-02-15T14:48:14;2.63;;;0.90;;
74904;SDS011;63465;50.862;6.220;2024-02-15T14:50:42;3.50;;;1.10;;
74904;SDS011;63465;50.862;6.220;2024-02-15T14:53:09;0.80;;;0.80;;
74904;SDS011;63465;50.862;6.220;2024-02-15T14:55:34;2.70;;;1.30;;
74904;SDS011;63465;50.862;6.220;2024-02-15T14:58:00;1.80;;;1.00;;
74904;SDS011;63465;50.862;6.220;2024-02-15T15:00:25;2.10;;;1.10;;
74904;SDS011;63465;50.862;6.220;2024-02-15T15:02:52;3.03;;;1.20;;
74904;SDS011;63465;50.862;6.220;2024-02-15T15:05:18;0.90;;;0.80;;